Time;durP1;ratioP1;P1;durP2;ratioP2;P2;SDS_P1;SDS_P2;PMS_P1;PMS_P2;Temp;Humidity;BMP_temperature;BMP_pressure;BME280_temperature;BME280_humidity;BME280_pressure;Samples;Min_cycle;Max_cycle;Signal;HPM_P1;HPM_P2
2023/09/25 00:00:24;;;;;;;7.33;4.40;;;10.70;99.90;;;;;;10440010;28;20222;-80
2023/09/25 00:05:48;;;;;;;10.13;5.10;;;10.80;99.90;;;;;;10441240;28;20306;-78
2023/09/25 00:11:10;;;;;;;7.30;4.57;;;10.70;99.90;;;;;;10413940;28;20221;-80
2023/09/25 00:16:31;;;;;;;8.57;4.63;;;10.70;99.90;;;;;;10409192;28;20294;-77
2023/09/25 00:21:52;;;;;;;8.37;6.07;;;10.60;1.00;;;;;;10400435;28;20483;-78
2023/09/25 00:27:14;;;;;;;11.27;7.30;;;10.60;1.00;;;;;;10414382;28;20290;-78
2023/09/25 00:32:35;;;;;;;10.40;6.37;;;10.60;1.00;;;;;;10442259;28;20396;-81
2023/09/25 00:37:56;;;;;;;7.67;4.83;;;10.60;99.90;;;;;;10425469;28;20412;-79
2023/09/25 00:43:18;;;;;;;9.33;6.13;;;10.60;99.90;;;;;;10423853;28;20203;-81
2023/09/25 00:48:42;;;;;;;7.87;5.67;;;10.50;99.90;;;;;;10424287;28;20211;-79
2023/09/25 00:54:03;;;;;;;10.97;6.20;;;10.50;99.90;;;;;;10425478;28;20230;-82
2023/09/25 00:59:25;;;;;;;14.40;9.13;;;10.50;99.90;;;;;;10385392;28;20240;-82
2023/09/25 01:04:48;;;;;;;10.40;6.57;;;10.50;99.90;;;;;;10424710;28;20271;-81
2023/09/25 01:10:17;;;;;;;7.70;5.80;;;10.50;99.90;;;;;;10439186;28;20499;-82
2023/09/25 01:22:17;;;;;;;8.90;4.93;;;10.40;99.90;;;;;;10327541;28;20576;-80
2023/09/25 01:27:42;;;;;;;8.33;5.30;;;10.30;99.90;;;;;;10353087;28;20278;-83
2023/09/25 01:33:04;;;;;;;8.87;5.23;;;10.30;99.90;;;;;;10354273;28;20251;-82
2023/09/25 01:38:25;;;;;;;8.03;5.07;;;10.20;99.90;;;;;;10319745;28;20566;-82
2023/09/25 01:43:46;;;;;;;7.13;4.43;;;10.20;1.00;;;;;;10339758;28;20204;-77
2023/09/25 01:49:08;;;;;;;8.80;4.83;;;10.20;99.90;;;;;;10355195;28;20226;-81
2023/09/25 01:54:30;;;;;;;6.73;4.40;;;10.10;99.90;;;;;;10421684;28;20532;-82
2023/09/25 01:59:51;;;;;;;9.67;4.93;;;10.10;99.90;;;;;;10398058;28;20258;-82
2023/09/25 02:05:12;;;;;;;7.00;4.57;;;10.10;99.90;;;;;;10420048;28;20253;-82
2023/09/25 02:10:34;;;;;;;6.80;4.07;;;10.10;99.90;;;;;;10401854;28;20502;-83
2023/09/25 02:15:56;;;;;;;8.57;5.27;;;10.00;99.90;;;;;;10422677;28;20247;-83
2023/09/25 02:21:17;;;;;;;10.13;4.97;;;9.90;99.90;;;;;;10436968;28;20230;-82
2023/09/25 02:26:38;;;;;;;6.07;3.83;;;10.00;99.90;;;;;;10422616;28;20201;-82
2023/09/25 02:32:00;;;;;;;5.17;3.63;;;10.00;99.90;;;;;;10406359;28;20262;-81
2023/09/25 02:37:21;;;;;;;5.70;3.60;;;9.90;99.90;;;;;;10425180;28;20239;-81
2023/09/25 02:42:47;;;;;;;6.30;3.30;;;9.90;99.90;;;;;;10437799;28;20331;-83
2023/09/25 02:48:08;;;;;;;7.73;3.70;;;9.70;99.90;;;;;;10422688;28;20211;-82
2023/09/25 02:53:30;;;;;;;8.27;3.73;;;9.70;1.00;;;;;;10419369;28;20199;-81
2023/09/25 02:58:51;;;;;;;6.13;3.73;;;9.70;99.90;;;;;;10372937;28;20230;-81
2023/09/25 03:04:12;;;;;;;5.97;4.00;;;9.70;99.90;;;;;;10380002;28;20399;-81
2023/09/25 03:09:34;;;;;;;6.67;4.53;;;9.70;99.90;;;;;;10436363;28;20206;-82
2023/09/25 03:14:55;;;;;;;10.73;5.40;;;9.80;1.00;;;;;;10421064;28;20249;-82
2023/09/25 03:20:16;;;;;;;15.57;7.27;;;9.80;1.00;;;;;;10391406;28;20266;-81
2023/09/25 03:25:40;;;;;;;14.73;8.03;;;9.80;1.00;;;;;;10418024;28;20255;-81
2023/09/25 03:31:02;;;;;;;14.13;7.60;;;9.80;1.00;;;;;;10405159;28;20204;-82
2023/09/25 03:36:25;;;;;;;12.00;5.57;;;9.80;1.00;;;;;;10420548;28;20199;-81
2023/09/25 03:41:47;;;;;;;9.80;6.20;;;9.80;1.00;;;;;;10436312;28;20231;-81
2023/09/25 03:47:08;;;;;;;10.70;6.33;;;9.70;1.00;;;;;;10420580;28;20392;-83
2023/09/25 03:52:29;;;;;;;10.93;7.63;;;9.70;1.00;;;;;;10421218;28;20194;-83
2023/09/25 03:57:51;;;;;;;11.00;7.53;;;9.70;1.00;;;;;;10422821;28;20484;-81
2023/09/25 04:03:13;;;;;;;11.70;7.60;;;9.50;1.00;;;;;;10434387;28;20199;-79
2023/09/25 04:08:35;;;;;;;9.13;5.97;;;9.40;99.90;;;;;;10434320;28;20214;-82
2023/09/25 04:13:57;;;;;;;8.27;5.67;;;9.50;99.90;;;;;;10418505;28;20207;-79
2023/09/25 04:19:19;;;;;;;10.63;6.70;;;9.50;1.00;;;;;;10436631;28;20307;-82
2023/09/25 04:24:40;;;;;;;11.90;6.97;;;9.60;1.00;;;;;;10441936;28;20196;-81
2023/09/25 04:30:08;;;;;;;11.83;7.80;;;9.60;1.00;;;;;;10410803;28;20230;-79
2023/09/25 04:35:29;;;;;;;14.40;9.47;;;9.60;1.00;;;;;;10440843;28;20257;-80
2023/09/25 04:40:51;;;;;;;18.20;10.33;;;9.60;1.00;;;;;;10441571;28;20564;-81
2023/09/25 04:46:12;;;;;;;15.87;9.80;;;9.70;1.00;;;;;;10440436;28;20203;-81
2023/09/25 04:51:34;;;;;;;12.93;8.10;;;9.80;1.00;;;;;;10440456;28;20191;-82
2023/09/25 04:56:55;;;;;;;10.23;5.97;;;9.70;1.00;;;;;;10409044;28;20210;-80
2023/09/25 05:02:16;;;;;;;8.77;5.67;;;9.70;1.00;;;;;;10398800;28;20213;-83
2023/09/25 05:07:37;;;;;;;8.77;5.77;;;9.70;1.00;;;;;;10420494;28;20242;-80
2023/09/25 05:12:58;;;;;;;10.40;5.97;;;9.80;1.00;;;;;;10440493;28;20565;-83
2023/09/25 05:18:20;;;;;;;8.73;5.47;;;9.90;1.00;;;;;;10442132;28;20472;-83
2023/09/25 05:23:41;;;;;;;8.73;5.23;;;10.10;1.00;;;;;;10439802;28;20380;-80
2023/09/25 05:29:04;;;;;;;9.93;4.80;;;10.40;1.00;;;;;;10425220;28;20208;-81
2023/09/25 05:34:25;;;;;;;9.47;5.00;;;10.70;1.00;;;;;;10438727;28;20216;-84
2023/09/25 05:39:49;;;;;;;11.65;5.93;;;11.00;1.00;;;;;;10439137;28;20358;-82
2023/09/25 05:45:12;;;;;;;14.93;8.90;;;11.30;1.00;;;;;;10409300;28;20412;-80
2023/09/25 05:50:34;;;;;;;20.07;10.67;;;11.30;1.00;;;;;;10424244;28;20375;-79
2023/09/25 05:55:55;;;;;;;14.33;8.33;;;11.40;99.90;;;;;;10433430;28;20253;-81
2023/09/25 06:01:17;;;;;;;12.50;7.27;;;11.60;99.90;;;;;;10436129;28;20239;-79
2023/09/25 06:06:39;;;;;;;10.10;6.00;;;11.70;99.90;;;;;;10405503;28;20308;-80
2023/09/25 06:12:00;;;;;;;12.17;5.77;;;11.90;99.90;;;;;;10437685;28;20204;-81
2023/09/25 06:17:26;;;;;;;18.25;9.45;;;12.10;1.00;;;;;;10436534;28;20227;-81
2023/09/25 06:22:47;;;;;;;17.25;10.43;;;12.40;99.90;;;;;;10406005;28;20200;-80
2023/09/25 06:28:08;;;;;;;27.48;15.85;;;12.60;99.90;;;;;;10431373;28;20286;-79
2023/09/25 06:33:31;;;;;;;21.15;12.15;;;12.90;98.00;;;;;;10422695;28;20224;-82
2023/09/25 06:38:52;;;;;;;27.50;12.65;;;13.20;1.00;;;;;;10486301;28;20234;-84
2023/09/25 06:44:14;;;;;;;18.63;9.18;;;13.60;1.00;;;;;;10476355;28;20230;-81
2023/09/25 06:49:35;;;;;;;15.05;7.88;;;14.20;1.00;;;;;;10490018;28;20248;-80
2023/09/25 06:54:57;;;;;;;11.32;6.20;;;;;;;;;;10471120;28;20276;-81
2023/09/25 07:00:18;;;;;;;11.10;4.13;;;15.60;23.10;;;;;;10472391;28;20224;-79
2023/09/25 07:05:40;;;;;;;5.38;3.40;;;17.10;1.00;;;;;;10471384;28;20615;-80
2023/09/25 07:11:03;;;;;;;3.67;2.38;;;;;;;;;;10465034;28;20218;-81
2023/09/25 07:16:24;;;;;;;4.05;2.65;;;;;;;;;;10415613;28;20502;-78
2023/09/25 07:21:47;;;;;;;4.80;2.42;;;;;;;;;;10456993;28;20227;-81
2023/09/25 07:27:08;;;;;;;5.22;2.80;;;21.40;99.90;;;;;;10471440;28;20202;-79
2023/09/25 07:32:29;;;;;;;3.35;1.90;;;;;;;;;;10467147;28;20257;-83
2023/09/25 07:37:51;;;;;;;5.43;1.50;;;;;;;;;;10458122;28;20245;-80
2023/09/25 07:43:12;;;;;;;4.97;1.92;;;22.80;99.90;;;;;;10457849;28;20482;-84
2023/09/25 07:48:38;;;;;;;5.57;1.80;;;22.70;99.90;;;;;;10448297;28;20276;-82
2023/09/25 07:54:02;;;;;;;3.20;1.80;;;;;;;;;;10492309;28;20428;-83
2023/09/25 07:59:25;;;;;;;3.80;1.73;;;23.70;99.90;;;;;;10422593;28;20236;-79
2023/09/25 08:04:50;;;;;;;3.38;1.67;;;23.90;99.90;;;;;;10442217;28;20445;-79
2023/09/25 08:10:12;;;;;;;6.80;3.55;;;24.30;99.90;;;;;;10491295;28;20249;-79
2023/09/25 08:15:35;;;;;;;3.78;1.80;;;24.20;99.90;;;;;;10477239;28;20419;-77
2023/09/25 08:20:57;;;;;;;5.30;1.98;;;24.00;99.90;;;;;;10477509;28;20457;-82
2023/09/25 08:26:19;;;;;;;3.45;1.73;;;24.30;99.90;;;;;;10489340;28;20207;-81
2023/09/25 08:31:44;;;;;;;4.10;1.63;;;25.20;99.90;;;;;;10441371;28;20210;-79
2023/09/25 08:37:06;;;;;;;4.22;1.15;;;25.70;99.90;;;;;;10467073;28;20195;-79
2023/09/25 08:42:27;;;;;;;5.85;1.70;;;25.40;99.90;;;;;;10459091;28;20257;-80
2023/09/25 08:47:49;;;;;;;2.75;1.65;;;25.50;99.90;;;;;;10478468;28;20341;-83
2023/09/25 08:53:11;;;;;;;4.35;1.70;;;25.90;99.90;;;;;;10474478;28;20500;-82
2023/09/25 08:58:33;;;;;;;5.47;1.42;;;;;;;;;;10475461;28;20238;-80
2023/09/25 09:03:55;;;;;;;4.10;1.67;;;26.70;99.90;;;;;;10475569;28;20258;-83
2023/09/25 09:09:17;;;;;;;3.80;1.65;;;26.60;99.90;;;;;;10475247;28;20215;-80
2023/09/25 09:14:43;;;;;;;4.78;1.88;;;26.90;99.90;;;;;;10474179;28;20195;-78
2023/09/25 09:20:06;;;;;;;3.55;1.77;;;27.30;99.90;;;;;;10475252;28;20219;-82
2023/09/25 09:25:29;;;;;;;3.10;1.67;;;27.90;99.90;;;;;;10492093;28;20203;-88
2023/09/25 09:30:50;;;;;;;4.25;2.33;;;27.90;99.90;;;;;;10516084;28;20199;-80
2023/09/25 09:36:13;;;;;;;7.18;3.28;;;27.80;99.90;;;;;;10470556;28;20219;-78
2023/09/25 09:41:36;;;;;;;3.08;1.40;;;28.20;99.90;;;;;;10450828;28;20273;-82
2023/09/25 09:47:01;;;;;;;3.60;1.70;;;28.70;99.90;;;;;;10453838;28;20203;-78
2023/09/25 09:52:22;;;;;;;4.05;2.17;;;28.80;99.90;;;;;;10435158;28;20204;-80
2023/09/25 09:57:44;;;;;;;3.53;2.00;;;;;;;;;;10431922;28;20256;-84
2023/09/25 10:03:08;;;;;;;3.25;1.80;;;;;;;;;;10460164;28;20238;-85
2023/09/25 10:08:31;;;;;;;3.63;1.30;;;29.40;1.00;;;;;;10427852;28;20603;-79
2023/09/25 10:13:59;;;;;;;11.27;2.10;;;29.60;99.90;;;;;;10467022;28;20510;-78
2023/09/25 10:19:21;;;;;;;14.13;5.88;;;28.50;18.50;;;;;;10470936;28;20243;-79
2023/09/25 10:24:43;;;;;;;5.97;2.60;;;27.70;2.00;;;;;;10482219;28;20215;-79
2023/09/25 10:30:17;;;;;;;2.53;1.55;;;28.30;1.00;;;;;;10499782;28;20191;-79
2023/09/25 10:35:44;;;;;;;7.30;3.30;;;29.00;1.00;;;;;;10468935;28;20206;-79
2023/09/25 10:41:07;;;;;;;3.30;1.33;;;28.60;1.00;;;;;;10472257;28;20236;-79
2023/09/25 10:46:28;;;;;;;1.77;1.00;;;28.20;1.00;;;;;;10471829;28;20211;-78
2023/09/25 10:51:50;;;;;;;3.22;2.25;;;27.70;1.00;;;;;;10471963;28;20258;-79
2023/09/25 10:57:11;;;;;;;2.28;1.42;;;26.50;99.90;;;;;;10494598;28;20200;-79
2023/09/25 11:02:33;;;;;;;1.88;1.27;;;26.90;99.90;;;;;;10471733;28;20536;-79
2023/09/25 11:07:55;;;;;;;4.40;2.47;;;27.80;99.90;;;;;;10429371;28;20250;-79
2023/09/25 11:13:16;;;;;;;4.82;1.92;;;27.00;99.90;;;;;;10458236;28;20238;-77
2023/09/25 11:18:36;;;;;;;7.35;2.90;;;28.00;99.90;;;;;;10464355;28;20219;-78
2023/09/25 11:23:58;;;;;;;3.75;1.52;;;26.90;99.90;;;;;;10466376;28;20210;-79
2023/09/25 11:29:19;;;;;;;9.02;2.40;;;25.50;99.90;;;;;;10521546;28;20270;-79
2023/09/25 11:34:40;;;;;;;4.13;1.98;;;25.30;99.90;;;;;;10478171;28;20254;-78
2023/09/25 11:40:02;;;;;;;8.00;1.35;;;27.00;99.90;;;;;;10480336;28;20623;-79
2023/09/25 11:45:24;;;;;;;3.58;1.80;;;27.50;99.90;;;;;;10462302;28;20204;-78
2023/09/25 11:50:46;;;;;;;3.10;1.33;;;27.10;99.90;;;;;;10445025;28;20231;-78
2023/09/25 11:56:07;;;;;;;3.35;1.80;;;26.40;99.90;;;;;;10476599;28;20431;-79
2023/09/25 12:01:28;;;;;;;3.42;1.25;;;25.50;99.90;;;;;;10463872;28;20222;-78
2023/09/25 12:06:56;;;;;;;4.07;1.38;;;24.90;99.90;;;;;;10403275;28;20596;-82
2023/09/25 12:12:17;;;;;;;2.63;1.63;;;26.50;99.90;;;;;;10408669;28;20235;-81
2023/09/25 12:17:39;;;;;;;2.55;1.10;;;26.50;99.90;;;;;;10413702;28;20495;-83
2023/09/25 12:23:00;;;;;;;2.67;1.23;;;27.00;99.90;;;;;;10394385;28;20453;-79
2023/09/25 12:28:21;;;;;;;4.18;1.27;;;26.10;99.90;;;;;;10406538;28;20217;-80
2023/09/25 12:33:43;;;;;;;2.95;1.52;;;25.00;99.90;;;;;;10440097;28;20296;-79
2023/09/25 12:39:06;;;;;;;5.25;1.77;;;25.20;99.90;;;;;;10407797;28;20236;-83
2023/09/25 12:44:27;;;;;;;4.38;2.67;;;25.40;99.90;;;;;;10424992;28;20217;-81
2023/09/25 12:49:49;;;;;;;5.18;2.38;;;25.20;99.90;;;;;;10395545;28;20356;-90
2023/09/25 12:55:10;;;;;;;2.47;1.25;;;24.70;99.90;;;;;;10389441;28;20268;-80
2023/09/25 13:00:32;;;;;;;3.50;1.27;;;24.60;99.90;;;;;;10408254;28;20463;-83
2023/09/25 13:05:53;;;;;;;1.63;1.15;;;24.20;99.90;;;;;;10427947;28;20464;-83
2023/09/25 13:11:14;;;;;;;4.47;1.70;;;24.10;99.90;;;;;;10445566;28;20288;-83
2023/09/25 13:16:36;;;;;;;1.73;1.02;;;24.20;99.90;;;;;;10455796;28;20207;-89
2023/09/25 13:21:58;;;;;;;2.35;1.52;;;24.10;99.90;;;;;;10458491;28;20530;-85
2023/09/25 13:27:19;;;;;;;2.78;1.67;;;24.30;99.90;;;;;;10463418;28;20207;-80
2023/09/25 13:32:40;;;;;;;2.20;1.15;;;24.50;99.90;;;;;;10458404;28;20219;-81
2023/09/25 13:38:01;;;;;;;3.08;1.45;;;24.80;99.90;;;;;;10475529;28;20211;-88
2023/09/25 13:43:23;;;;;;;2.40;1.30;;;24.50;99.90;;;;;;10457711;28;20242;-86
2023/09/25 13:48:44;;;;;;;4.20;1.60;;;24.90;99.90;;;;;;10475082;28;20452;-86
2023/09/25 13:54:06;;;;;;;3.35;1.50;;;25.00;99.90;;;;;;10473937;28;20199;-85
2023/09/25 13:59:27;;;;;;;5.18;1.20;;;24.60;99.90;;;;;;10475359;28;20262;-84
2023/09/25 14:04:51;;;;;;;2.55;1.33;;;24.00;99.90;;;;;;10466612;28;20240;-80
2023/09/25 14:10:13;;;;;;;2.13;1.33;;;23.30;99.90;;;;;;10471558;28;20515;-80
2023/09/25 14:15:35;;;;;;;3.95;2.10;;;22.70;99.90;;;;;;10474426;28;20222;-81
2023/09/25 14:20:57;;;;;;;3.28;1.23;;;22.50;99.90;;;;;;10459277;28;20266;-78
2023/09/25 14:26:18;;;;;;;4.75;1.50;;;22.10;99.90;;;;;;10469848;28;20191;-79
2023/09/25 14:31:40;;;;;;;2.63;1.35;;;21.90;99.90;;;;;;10451143;28;20266;-78
2023/09/25 14:37:01;;;;;;;3.50;1.45;;;21.80;99.90;;;;;;10473127;28;20427;-79
2023/09/25 14:42:23;;;;;;;1.63;0.82;;;21.80;99.90;;;;;;10470988;28;20294;-81
2023/09/25 14:47:44;;;;;;;4.05;1.77;;;21.60;99.90;;;;;;10473096;28;20560;-79
2023/09/25 14:53:08;;;;;;;3.03;1.35;;;21.70;99.90;;;;;;10486086;28;20196;-78
2023/09/25 14:58:29;;;;;;;1.73;1.40;;;22.10;99.90;;;;;;10470600;28;20257;-78
2023/09/25 15:03:50;;;;;;;3.08;1.27;;;22.00;99.90;;;;;;10455437;28;20222;-83
2023/09/25 15:09:12;;;;;;;1.70;1.50;;;21.70;99.90;;;;;;10475148;28;20388;-78
2023/09/25 15:14:33;;;;;;;2.70;1.40;;;;;;;;;;10476212;28;20206;-79
2023/09/25 15:19:56;;;;;;;13.90;4.70;;;21.20;99.90;;;;;;10476269;28;20226;-79
2023/09/25 15:25:17;;;;;;;2.17;1.42;;;21.10;99.90;;;;;;10460052;28;20552;-78
2023/09/25 15:30:39;;;;;;;3.45;1.67;;;20.90;99.90;;;;;;10442807;28;20276;-80
2023/09/25 15:36:00;;;;;;;5.43;2.05;;;20.70;99.90;;;;;;10454504;28;20207;-78
2023/09/25 15:41:21;;;;;;;4.85;2.38;;;20.60;99.90;;;;;;10473322;28;20600;-79
2023/09/25 15:46:43;;;;;;;5.38;1.70;;;20.60;99.90;;;;;;10458056;28;20245;-79
2023/09/25 15:52:04;;;;;;;5.07;2.70;;;20.40;99.90;;;;;;10477140;28;20399;-79
2023/09/25 15:57:25;;;;;;;9.30;5.28;;;20.20;99.90;;;;;;10458708;28;20284;-79
2023/09/25 16:02:46;;;;;;;8.18;3.83;;;20.20;99.90;;;;;;10450710;28;20285;-79
2023/09/25 16:08:08;;;;;;;6.93;3.60;;;20.20;99.90;;;;;;10478221;28;20231;-79
2023/09/25 16:13:29;;;;;;;9.02;3.45;;;20.00;99.90;;;;;;10483769;28;20192;-80
2023/09/25 16:18:50;;;;;;;7.55;4.43;;;;;;;;;;10468930;28;20223;-79
2023/09/25 16:24:12;;;;;;;5.25;3.25;;;19.80;99.90;;;;;;10482386;28;20367;-80
2023/09/25 16:29:33;;;;;;;6.85;3.35;;;19.80;99.90;;;;;;10482783;28;20207;-79
2023/09/25 16:34:55;;;;;;;7.43;3.55;;;19.70;99.90;;;;;;10483292;28;20532;-79
2023/09/25 16:40:16;;;;;;;11.60;4.90;;;19.60;99.90;;;;;;10469740;28;20231;-79
2023/09/25 16:45:38;;;;;;;9.02;4.40;;;;;;;;;;10450632;28;20283;-80
2023/09/25 16:50:59;;;;;;;6.82;3.67;;;19.70;1.00;;;;;;10482771;28;20191;-79
2023/09/25 16:56:21;;;;;;;6.32;3.72;;;;;;;;;;10475319;28;20196;-79
2023/09/25 17:01:42;;;;;;;6.97;3.70;;;19.50;99.90;;;;;;10441010;28;20222;-79
2023/09/25 17:07:04;;;;;;;5.68;3.30;;;19.50;1.00;;;;;;10455707;28;20281;-79
2023/09/25 17:12:25;;;;;;;7.20;4.18;;;19.50;1.00;;;;;;10467015;28;20445;-78
2023/09/25 17:17:46;;;;;;;8.40;4.53;;;19.80;1.00;;;;;;10462382;28;20419;-79
2023/09/25 17:23:08;;;;;;;7.88;5.10;;;;;;;;;;10466312;28;20223;-79
2023/09/25 17:28:30;;;;;;;11.98;7.72;;;;;;;;;;10463239;28;20286;-78
2023/09/25 17:33:51;;;;;;;11.88;9.38;;;;;;;;;;10477909;28;20551;-79
2023/09/25 17:39:13;;;;;;;19.42;12.13;;;;;;;;;;10479525;28;20269;-79
2023/09/25 17:44:35;;;;;;;16.52;9.82;;;;;;;;;;10466383;28;20208;-79
2023/09/25 17:49:56;;;;;;;12.00;8.10;;;;;;;;;;10479378;28;20183;-78
2023/09/25 17:55:18;;;;;;;15.13;7.40;;;18.70;99.90;;;;;;10436853;28;20258;-79
2023/09/25 18:00:40;;;;;;;12.50;7.75;;;18.60;99.90;;;;;;10437451;28;20286;-79
2023/09/25 18:06:01;;;;;;;10.18;5.93;;;18.60;99.90;;;;;;10475811;28;20526;-79
2023/09/25 18:11:22;;;;;;;9.52;5.80;;;18.40;99.90;;;;;;10477442;28;20762;-78
2023/09/25 18:16:43;;;;;;;11.82;7.13;;;18.30;99.90;;;;;;10452659;28;20245;-79
2023/09/25 18:22:04;;;;;;;10.82;6.85;;;18.20;99.90;;;;;;10477932;28;20412;-78
2023/09/25 18:27:27;;;;;;;9.20;5.55;;;18.10;1.00;;;;;;10461241;28;20554;-79
2023/09/25 18:32:52;;;;;;;11.70;5.22;;;18.00;1.00;;;;;;10477231;28;20487;-79
2023/09/25 18:38:13;;;;;;;8.68;4.80;;;18.00;67.90;;;;;;10463809;28;20474;-79
2023/09/25 18:43:34;;;;;;;7.00;4.40;;;17.90;1.00;;;;;;10477661;28;20306;-78
2023/09/25 18:48:55;;;;;;;12.40;6.60;;;17.90;1.00;;;;;;10477357;28;20206;-78
2023/09/25 18:54:16;;;;;;;11.13;6.15;;;17.60;1.00;;;;;;10475068;28;20254;-78
2023/09/25 18:59:40;;;;;;;10.10;5.70;;;17.60;1.00;;;;;;10476904;28;20226;-78
2023/09/25 19:05:01;;;;;;;11.48;6.65;;;17.60;1.00;;;;;;10474606;28;20243;-78
2023/09/25 19:10:23;;;;;;;10.50;6.50;;;17.60;1.00;;;;;;10432015;28;20203;-78
2023/09/25 19:15:44;;;;;;;7.82;5.43;;;17.60;1.00;;;;;;10476619;28;20426;-78
2023/09/25 19:21:06;;;;;;;8.23;4.32;;;17.60;1.00;;;;;;10476457;28;20227;-78
2023/09/25 19:26:28;;;;;;;8.82;5.18;;;17.60;1.00;;;;;;10475739;28;20199;-78
2023/09/25 19:31:49;;;;;;;6.85;4.20;;;17.50;1.00;;;;;;10462505;28;20195;-78
2023/09/25 19:37:10;;;;;;;5.95;4.60;;;17.50;1.00;;;;;;10458276;28;20263;-78
2023/09/25 19:42:32;;;;;;;5.88;4.30;;;17.40;1.00;;;;;;10465880;28;20278;-78
2023/09/25 19:47:53;;;;;;;9.27;4.43;;;17.20;1.00;;;;;;10484264;28;20203;-78
2023/09/25 19:53:14;;;;;;;7.90;3.88;;;17.20;1.00;;;;;;10453595;28;20196;-78
2023/09/25 19:58:36;;;;;;;5.38;3.13;;;17.20;1.00;;;;;;10483658;28;20199;-78
2023/09/25 20:03:57;;;;;;;5.97;3.80;;;17.10;1.00;;;;;;10469302;28;20477;-79
2023/09/25 20:09:19;;;;;;;5.18;3.10;;;17.00;1.00;;;;;;10471747;28;20196;-78
2023/09/25 20:14:41;;;;;;;6.75;3.13;;;16.90;1.00;;;;;;10482101;28;20239;-78
2023/09/25 20:20:04;;;;;;;5.82;3.38;;;16.90;1.00;;;;;;10468036;28;20414;-78
2023/09/25 20:25:25;;;;;;;6.18;2.50;;;16.90;99.90;;;;;;10481942;28;20214;-78
2023/09/25 20:30:47;;;;;;;4.15;2.67;;;16.70;1.00;;;;;;10465873;28;20198;-78
2023/09/25 20:36:11;;;;;;;5.45;2.78;;;16.70;1.00;;;;;;10481653;28;20493;-78
2023/09/25 20:41:32;;;;;;;4.38;3.13;;;16.70;1.00;;;;;;10483312;28;20219;-78
2023/09/25 20:46:53;;;;;;;5.82;3.55;;;16.60;1.00;;;;;;10442978;28;20210;-77
2023/09/25 20:52:15;;;;;;;5.05;3.13;;;16.60;1.00;;;;;;10476790;28;20486;-78
2023/09/25 20:57:36;;;;;;;5.20;3.20;;;16.60;34.40;;;;;;10459778;28;20195;-78
2023/09/25 21:02:58;;;;;;;6.72;3.40;;;16.60;8.30;;;;;;10480108;28;20227;-79
2023/09/25 21:08:19;;;;;;;3.90;2.88;;;16.60;10.00;;;;;;10480444;28;20518;-78
2023/09/25 21:13:40;;;;;;;5.35;3.22;;;16.50;17.00;;;;;;10469097;28;20287;-78
2023/09/25 21:19:01;;;;;;;6.97;3.38;;;16.60;34.30;;;;;;10481276;28;20294;-79
2023/09/25 21:24:22;;;;;;;5.25;3.30;;;16.60;1.00;;;;;;10465671;28;20199;-79
2023/09/25 21:29:44;;;;;;;7.07;3.03;;;16.70;1.00;;;;;;10463306;28;20274;-78
2023/09/25 21:35:06;;;;;;;6.28;3.67;;;16.70;1.00;;;;;;10480151;28;20203;-78
2023/09/25 21:40:26;;;;;;;5.10;3.10;;;16.70;1.00;;;;;;10480942;28;20223;-78
2023/09/25 21:45:48;;;;;;;5.43;3.15;;;16.80;1.00;;;;;;10448837;28;20205;-79
2023/09/25 21:51:09;;;;;;;7.15;3.08;;;16.80;1.00;;;;;;10461541;28;20206;-78
2023/09/25 21:56:31;;;;;;;4.57;2.70;;;16.80;1.00;;;;;;10462666;28;20203;-78
2023/09/25 22:01:52;;;;;;;4.07;2.30;;;16.80;1.00;;;;;;10464975;28;20410;-78
2023/09/25 22:07:13;;;;;;;3.95;2.70;;;16.80;1.00;;;;;;10477678;28;20239;-78
2023/09/25 22:12:35;;;;;;;3.78;2.47;;;16.80;1.00;;;;;;10479706;28;20202;-78
2023/09/25 22:17:59;;;;;;;4.35;2.72;;;16.80;1.00;;;;;;10464165;28;20187;-78
2023/09/25 22:23:21;;;;;;;3.78;2.35;;;16.70;1.00;;;;;;10478351;28;20246;-78
2023/09/25 22:28:42;;;;;;;4.07;2.60;;;16.70;1.00;;;;;;10460852;28;20222;-78
2023/09/25 22:34:04;;;;;;;4.15;2.17;;;16.70;1.00;;;;;;10461108;28;20196;-78
2023/09/25 22:39:25;;;;;;;3.60;2.30;;;16.70;1.00;;;;;;10449284;28;20215;-79
2023/09/25 22:44:46;;;;;;;3.60;2.10;;;16.70;1.00;;;;;;10491830;28;20497;-78
2023/09/25 22:50:08;;;;;;;4.70;2.20;;;16.60;1.00;;;;;;10459765;28;20513;-78
2023/09/25 22:55:30;;;;;;;2.22;1.90;;;16.60;1.00;;;;;;10449422;28;20551;-78
2023/09/25 23:00:51;;;;;;;3.78;2.35;;;16.60;1.00;;;;;;10460123;28;20229;-78
2023/09/25 23:06:13;;;;;;;2.83;2.25;;;16.60;1.00;;;;;;10450229;28;20236;-78
2023/09/25 23:11:34;;;;;;;5.43;2.47;;;16.70;1.00;;;;;;10438267;28;20198;-78
2023/09/25 23:16:56;;;;;;;3.83;2.40;;;16.60;1.00;;;;;;10476668;28;20202;-78
2023/09/25 23:22:17;;;;;;;3.90;2.20;;;16.60;1.00;;;;;;10489830;28;20606;-78
2023/09/25 23:27:39;;;;;;;3.50;2.35;;;16.60;1.00;;;;;;10445898;28;20245;-78
2023/09/25 23:33:00;;;;;;;4.55;1.75;;;16.70;1.00;;;;;;10476443;28;20200;-78
2023/09/25 23:38:21;;;;;;;8.10;4.85;;;16.70;1.00;;;;;;10450789;28;20199;-78
2023/09/25 23:43:46;;;;;;;6.20;3.28;;;16.70;1.00;;;;;;10476364;28;20242;-78
2023/09/25 23:49:08;;;;;;;3.38;2.15;;;16.70;1.00;;;;;;10475473;28;20191;-78
2023/09/25 23:54:29;;;;;;;8.52;3.33;;;16.70;1.00;;;;;;10475017;28;20417;-79
2023/09/25 23:59:50;;;;;;;4.68;2.88;;;16.70;1.00;;;;;;10475589;28;20289;-78
